Time;durP1;ratioP1;P1;durP2;ratioP2;P2;SDS_P1;SDS_P2;PMS_P1;PMS_P2;Temp;Humidity;BMP_temperature;BMP_pressure;BME280_temperature;BME280_humidity;BME280_pressure;Samples;Min_cycle;Max_cycle;Signal;HPM_P1;HPM_P2
2023/05/15 00:04:10;;;;;;;8.38;5.50;;;;;;;;;;10451964;28;20271;-71
2023/05/15 00:09:10;;;;;;;9.88;6.22;;;;;;;;;;10460804;28;20028;-71
2023/05/15 00:14:11;;;;;;;7.50;5.75;;;;;;;;;;10461214;28;20135;-70
2023/05/15 00:19:11;;;;;;;12.60;5.83;;;;;;;;;;10459794;28;20759;-71
2023/05/15 00:24:11;;;;;;;10.77;6.35;;;;;;;;;;10466076;28;20032;-71
2023/05/15 00:29:12;;;;;;;6.90;5.32;;;;;;;;;;10449986;28;20036;-71
2023/05/15 00:34:18;;;;;;;12.05;6.55;;;;;;;;;;10467927;28;20125;-71
2023/05/15 00:39:18;;;;;;;8.23;5.68;;;;;;;;;;10460494;28;20032;-71
2023/05/15 00:44:20;;;;;;;9.98;6.80;;;;;;;;;;10508782;28;20032;-71
2023/05/15 00:49:20;;;;;;;12.23;7.57;;;;;;;;;;10466822;28;20033;-71
2023/05/15 00:54:21;;;;;;;12.10;7.25;;;;;;;;;;10474766;28;20133;-70
2023/05/15 00:59:23;;;;;;;14.47;6.67;;;;;;;;;;10466275;28;20060;-71
2023/05/15 01:04:23;;;;;;;14.40;7.75;;;;;;;;;;10466424;28;20036;-70
2023/05/15 01:09:24;;;;;;;12.07;7.07;;;;;;;;;;10466279;28;20029;-71
2023/05/15 01:14:24;;;;;;;11.23;6.47;;;;;;;;;;10448254;28;20048;-71
2023/05/15 01:19:25;;;;;;;20.80;7.40;;;;;;;;;;10455675;28;20097;-71
2023/05/15 01:24:44;;;;;;;12.27;7.05;;;;;;;;;;10457711;28;20047;-71
2023/05/15 01:29:58;;;;;;;12.88;8.30;;;;;;;;;;10465718;28;20036;-71
2023/05/15 01:35:07;;;;;;;11.60;6.55;;;;;;;;;;10463582;28;20055;-71
2023/05/15 01:40:09;;;;;;;15.65;8.50;;;;;;;;;;10447370;28;20037;-71
2023/05/15 01:45:10;;;;;;;15.80;7.80;;;;;;;;;;10466113;28;20105;-71
2023/05/15 01:50:13;;;;;;;13.50;8.48;;;;;;;;;;10443418;28;20043;-71
2023/05/15 01:55:14;;;;;;;13.20;8.32;;;;;;;;;;10440922;28;20049;-71
2023/05/15 02:00:15;;;;;;;14.20;8.63;;;;;;;;;;10462194;28;20067;-71
2023/05/15 02:05:16;;;;;;;11.55;7.47;;;;;;;;;;10422696;28;20039;-71
2023/05/15 02:10:17;;;;;;;12.63;8.27;;;;;;;;;;10423994;28;20037;-71
2023/05/15 02:15:18;;;;;;;16.27;9.05;;;;;;;;;;10463164;28;20036;-72
2023/05/15 02:20:18;;;;;;;20.27;10.07;;;;;;;;;;10463424;28;20032;-71
2023/05/15 02:25:25;;;;;;;15.03;9.27;;;;;;;;;;10463198;28;20028;-71
2023/05/15 02:30:44;;;;;;;18.50;11.27;;;;;;;;;;10463529;28;20328;-70
2023/05/15 02:35:45;;;;;;;19.80;9.95;;;;;;;;;;10462279;28;20431;-70
2023/05/15 02:40:46;;;;;;;23.40;10.75;;;;;;;;;;10463314;28;20036;-70
2023/05/15 02:45:47;;;;;;;19.60;11.90;;;;;;;;;;10452947;28;20029;-71
2023/05/15 02:50:47;;;;;;;20.70;11.77;;;;;;;;;;10436149;28;20036;-71
2023/05/15 02:55:48;;;;;;;24.90;13.23;;;;;;;;;;10462970;28;20028;-71
2023/05/15 03:00:48;;;;;;;27.00;15.27;;;;;;;;;;10420502;28;20518;-71
2023/05/15 03:05:48;;;;;;;29.05;15.43;;;;;;;;;;10420965;28;20557;-71
2023/05/15 03:10:49;;;;;;;30.65;16.13;;;;;;;;;;10420559;28;20033;-71
2023/05/15 03:15:49;;;;;;;28.47;16.70;;;;;;;;;;10420492;28;20503;-71
2023/05/15 03:20:51;;;;;;;26.42;15.18;;;;;;;;;;10446815;28;20337;-71
2023/05/15 03:25:51;;;;;;;28.30;16.23;;;;;;;;;;10459585;28;20060;-72
2023/05/15 03:30:52;;;;;;;26.63;14.98;;;;;;;;;;10460581;28;20459;-71
2023/05/15 03:35:52;;;;;;;28.40;16.63;;;;;;;;;;10443435;28;20040;-71
2023/05/15 03:40:52;;;;;;;28.42;16.05;;;;;;;;;;10435699;28;20260;-71
2023/05/15 03:45:53;;;;;;;27.97;15.77;;;;;;;;;;10433699;28;20028;-71
2023/05/15 03:50:53;;;;;;;27.13;16.20;;;;;;;;;;10434856;28;20045;-71
2023/05/15 03:55:53;;;;;;;28.47;16.23;;;;;;;;;;10429199;28;20503;-70
2023/05/15 04:00:54;;;;;;;27.17;15.30;;;;;;;;;;10459444;28;20040;-71
2023/05/15 04:05:55;;;;;;;34.05;18.95;;;;;;;;;;10440130;28;20040;-71
2023/05/15 04:10:55;;;;;;;29.40;16.87;;;;;;;;;;10435967;28;20732;-71
2023/05/15 04:15:56;;;;;;;21.90;14.33;;;;;;;;;;10432925;28;20282;-71
2023/05/15 04:20:56;;;;;;;29.13;16.90;;;;;;;;;;10434185;28;20302;-71
2023/05/15 04:25:57;;;;;;;29.63;15.40;;;;;;;;;;10419675;28;20029;-70
2023/05/15 04:30:58;;;;;;;25.02;14.82;;;;;;;;;;10460709;28;20036;-70
2023/05/15 04:35:58;;;;;;;24.73;16.42;;;;;;;;;;10452136;28;20128;-72
2023/05/15 04:40:58;;;;;;;28.17;15.52;;;;;;;;;;10449251;28;20051;-73
2023/05/15 04:45:59;;;;;;;22.43;13.47;;;;;;;;;;10458258;28;20047;-72
2023/05/15 04:50:59;;;;;;;18.30;11.43;;;;;;;;;;10439496;28;20275;-72
2023/05/15 04:56:00;;;;;;;17.97;10.60;;;;;;;;;;10458308;28;20044;-72
2023/05/15 05:01:00;;;;;;;20.20;11.07;;;;;;;;;;10458623;28;20492;-73
2023/05/15 05:06:01;;;;;;;15.18;9.43;;;;;;;;;;10458666;28;20286;-73
2023/05/15 05:11:02;;;;;;;14.13;9.07;;;;;;;;;;10465832;28;20552;-73
2023/05/15 05:16:02;;;;;;;16.63;10.10;;;;;;;;;;10467001;28;20556;-72
2023/05/15 05:21:02;;;;;;;20.95;11.93;;;;;;;;;;10470655;28;20143;-72
2023/05/15 05:26:03;;;;;;;23.80;12.87;;;;;;;;;;10481334;28;20035;-73
2023/05/15 05:31:03;;;;;;;21.03;12.00;;;;;;;;;;10468047;28;20039;-73
2023/05/15 05:36:04;;;;;;;19.43;12.43;;;;;;;;;;10456041;28;20048;-73
2023/05/15 05:41:05;;;;;;;26.58;14.50;;;;;;;;;;10458659;28;20451;-73
2023/05/15 05:46:06;;;;;;;24.20;13.20;;;;;;;;;;10467878;28;20091;-73
2023/05/15 05:51:06;;;;;;;20.70;12.53;;;;;;;;;;10467475;28;20549;-73
2023/05/15 05:56:07;;;;;;;21.50;12.50;;;;;;;;;;10467671;28;20383;-73
2023/05/15 06:06:45;;;;;;;20.30;11.63;;;;;;;;;;10468485;28;20414;-73
2023/05/15 06:11:46;;;;;;;17.67;10.93;;;;;;;;;;10473582;28;20016;-72
2023/05/15 06:16:46;;;;;;;24.77;11.63;;;;;;;;;;10508953;28;20036;-73
2023/05/15 06:27:25;;;;;;;22.65;12.52;;;;;;;;;;10493674;28;20067;-72
2023/05/15 06:32:25;;;;;;;21.23;11.63;;;;;;;;;;10469243;28;20055;-72
2023/05/15 06:37:26;;;;;;;22.03;11.77;;;;;;;;;;10467664;28;20410;-72
2023/05/15 06:42:27;;;;;;;23.75;10.68;;;;;;;;;;10465121;28;20057;-72
2023/05/15 06:47:28;;;;;;;21.20;10.77;;;;;;;;;;10465628;28;20032;-72
2023/05/15 06:52:29;;;;;;;20.50;10.25;;;;;;;;;;10464991;28;20867;-72
2023/05/15 06:57:29;;;;;;;20.33;9.90;;;;;;;;;;10433558;28;20037;-72
2023/05/15 07:02:30;;;;;;;21.60;8.73;;;;;;;;;;10427786;28;20379;-72
2023/05/15 07:07:30;;;;;;;14.70;7.85;;;;;;;;;;10465845;28;20181;-72
2023/05/15 07:12:31;;;;;;;16.77;7.93;;;;;;;;;;10464304;28;20045;-72
2023/05/15 07:17:32;;;;;;;17.17;9.25;;;;;;;;;;10464171;28;20127;-72
2023/05/15 07:22:32;;;;;;;22.97;11.63;;;;;;;;;;10411463;28;20033;-72
2023/05/15 07:27:34;;;;;;;20.40;9.37;;;;;;;;;;10436724;28;20276;-71
2023/05/15 07:32:34;;;;;;;23.98;8.93;;;;;;;;;;10463501;28;20433;-72
2023/05/15 07:37:34;;;;;;;18.52;9.65;;;;;;;;;;10463801;28;20049;-72
2023/05/15 07:42:35;;;;;;;19.83;9.67;;;;;;;;;;10444855;28;20039;-73
2023/05/15 07:47:36;;;;;;;21.40;12.13;;;;;;;;;;10448199;28;20423;-72
2023/05/15 07:52:36;;;;;;;24.40;12.25;;;;;;;;;;10465887;28;20625;-73
2023/05/15 07:58:07;;;;;;;23.45;11.90;;;;;;;;;;10466375;28;20024;-74
2023/05/15 08:03:18;;;;;;;19.95;12.10;;;;;;;;;;10464477;28;20029;-72
2023/05/15 08:08:19;;;;;;;24.33;12.93;;;;;;;;;;10462212;28;20025;-72
2023/05/15 08:13:19;;;;;;;29.65;14.98;;;;;;;;;;10463543;28;20436;-72
2023/05/15 08:28:40;;;;;;;25.60;14.73;;;;;;;;;;9698882;22;20131;-74
2023/05/15 08:33:40;;;;;;;22.98;13.75;;;;;;;;;;10425662;28;20084;-73
2023/05/15 08:38:41;;;;;;;19.13;11.43;;;;;;;;;;10424257;28;20029;-72
2023/05/15 08:43:42;;;;;;;21.27;11.45;;;;;;;;;;10465852;28;20453;-72
2023/05/15 08:48:43;;;;;;;22.00;11.90;;;;;;;;;;10473062;28;20107;-73
2023/05/15 08:53:44;;;;;;;18.20;9.83;;;;;;;;;;10463558;28;20405;-73
2023/05/15 08:58:44;;;;;;;18.23;10.18;;;;;;;;;;10439315;28;20032;-74
2023/05/15 09:03:45;;;;;;;25.55;11.98;;;;;;;;;;10471994;28;20459;-72
2023/05/15 09:08:46;;;;;;;21.37;12.33;;;;;;;;;;10471335;28;20502;-71
2023/05/15 09:13:46;;;;;;;24.90;13.00;;;;;;;;;;10469819;28;20804;-71
2023/05/15 09:18:48;;;;;;;23.83;13.23;;;;;;;;;;10470457;28;20068;-72
2023/05/15 09:23:49;;;;;;;24.23;13.20;;;;;;;;;;10471089;28;20068;-73
2023/05/15 09:28:49;;;;;;;23.43;12.87;;;;;;;;;;10470760;28;20566;-73
2023/05/15 09:34:00;;;;;;;23.88;11.82;;;;;;;;;;10453030;28;20045;-72
2023/05/15 10:06:33;;;;;;;;;;;;;;;;;;;;;
2023/05/15 10:11:34;;;;;;;21.73;11.48;;;;;;;;;;10428453;28;20052;-73
2023/05/15 10:16:56;;;;;;;24.98;11.13;;;;;;;;;;10430773;28;20580;-75
2023/05/15 10:21:57;;;;;;;20.20;10.73;;;;;;;;;;10427921;28;20037;-73
2023/05/15 10:26:58;;;;;;;23.67;12.43;;;;;;;;;;10418553;28;20046;-73
2023/05/15 10:31:59;;;;;;;24.63;11.32;;;;;;;;;;10407333;28;20033;-72
2023/05/15 10:37:01;;;;;;;22.02;11.15;;;;;;;;;;10409285;28;20028;-72
2023/05/15 10:42:02;;;;;;;18.60;10.55;;;;;;;;;;10425002;28;20037;-74
2023/05/15 10:47:03;;;;;;;14.70;8.75;;;;;;;;;;10427814;28;20044;-72
2023/05/15 10:52:04;;;;;;;18.27;9.88;;;;;;;;;;10411147;28;20033;-72
2023/05/15 10:57:05;;;;;;;17.55;10.50;;;;;;;;;;10425724;28;20483;-73
2023/05/15 11:02:22;;;;;;;19.02;10.75;;;;;;;;;;10423356;28;20039;-73
2023/05/15 11:07:23;;;;;;;17.95;9.77;;;;;;;;;;10425175;28;20053;-73
2023/05/15 11:12:23;;;;;;;21.30;10.48;;;;;;;;;;10424655;28;20041;-70
2023/05/15 11:17:32;;;;;;;18.47;9.73;;;;;;;;;;10425545;28;20095;-73
2023/05/15 11:22:37;;;;;;;26.30;10.80;;;;;;;;;;10413053;28;20026;-74
2023/05/15 11:27:43;;;;;;;24.15;10.15;;;;;;;;;;10364465;28;20067;-75
2023/05/15 11:32:46;;;;;;;23.38;11.82;;;;;;;;;;10415581;28;20091;-73
2023/05/15 11:37:52;;;;;;;23.15;12.25;;;;;;;;;;10420453;28;20099;-73
2023/05/15 11:43:03;;;;;;;21.75;11.68;;;;;;;;;;10405929;28;20051;-72
2023/05/15 11:48:05;;;;;;;19.85;10.93;;;;;;;;;;10368481;28;20147;-73
2023/05/15 11:53:06;;;;;;;22.52;11.95;;;;;;;;;;10389137;28;20037;-73
2023/05/15 11:58:11;;;;;;;21.42;11.43;;;;;;;;;;10402354;28;20021;-73
2023/05/15 12:03:15;;;;;;;22.63;11.88;;;;;;;;;;10393735;28;20045;-74
2023/05/15 12:08:15;;;;;;;24.38;10.85;;;;;;;;;;10384582;28;20041;-73
2023/05/15 12:13:17;;;;;;;21.43;10.57;;;;;;;;;;10424262;28;20045;-74
2023/05/15 12:18:17;;;;;;;19.90;10.35;;;;;;;;;;10431415;28;20029;-79
2023/05/15 12:23:19;;;;;;;20.58;10.38;;;;;;;;;;10433086;28;20036;-74
2023/05/15 12:28:19;;;;;;;21.80;10.32;;;;;;;;;;10403641;28;20037;-71
2023/05/15 12:33:20;;;;;;;21.63;10.73;;;;;;;;;;10411327;28;20411;-71
2023/05/15 12:38:21;;;;;;;27.98;12.30;;;;;;;;;;10406088;28;20470;-70
2023/05/15 12:43:24;;;;;;;19.25;11.55;;;;;;;;;;10414672;28;20033;-70
2023/05/15 12:48:29;;;;;;;20.65;10.30;;;;;;;;;;10419408;28;20112;-70
2023/05/15 12:53:31;;;;;;;16.40;8.63;;;;;;;;;;10409043;28;20038;-70
2023/05/15 12:58:32;;;;;;;16.83;8.45;;;;;;;;;;10407257;28;20570;-70
2023/05/15 13:03:40;;;;;;;13.75;8.05;;;;;;;;;;10412542;28;20096;-71
2023/05/15 13:08:46;;;;;;;19.75;9.90;;;;;;;;;;11094843;22;20578;-71
2023/05/15 13:13:53;;;;;;;21.58;8.85;;;;;;;;;;10456362;28;20040;-71
2023/05/15 13:24:52;;;;;;;33.92;12.05;;;;;;;;;;10467214;28;20060;-72
2023/05/15 13:29:53;;;;;;;17.63;8.80;;;;;;;;;;10440488;28;20033;-71
2023/05/15 13:34:55;;;;;;;16.30;8.47;;;;;;;;;;10466035;28;20036;-71
2023/05/15 13:39:55;;;;;;;15.13;6.70;;;;;;;;;;10467471;28;20660;-71
2023/05/15 13:44:56;;;;;;;21.52;8.20;;;;;;;;;;10467542;28;20099;-71
2023/05/15 13:49:56;;;;;;;23.98;8.27;;;;;;;;;;10449179;28;20125;-72
2023/05/15 13:54:57;;;;;;;18.77;8.93;;;;;;;;;;10466697;28;20073;-71
2023/05/15 13:59:57;;;;;;;27.20;8.70;;;;;;;;;;10466818;28;20043;-71
2023/05/15 14:04:58;;;;;;;20.85;8.73;;;;;;;;;;10456872;28;20032;-70
2023/05/15 14:09:58;;;;;;;25.43;10.23;;;;;;;;;;10447027;28;20048;-71
2023/05/15 14:14:59;;;;;;;16.57;8.73;;;;;;;;;;10429614;28;20033;-70
2023/05/15 14:20:01;;;;;;;33.85;9.10;;;;;;;;;;10440136;28;20326;-73
2023/05/15 14:25:03;;;;;;;21.48;8.43;;;;;;;;;;10424079;28;20118;-72
2023/05/15 14:30:04;;;;;;;15.52;8.98;;;;;;;;;;10455556;28;20179;-71
2023/05/15 14:35:05;;;;;;;33.22;9.30;;;;;;;;;;10465675;28;20187;-71
2023/05/15 14:40:06;;;;;;;17.17;8.95;;;;;;;;;;10466821;28;20494;-71
2023/05/15 14:45:07;;;;;;;17.67;7.07;;;;;;;;;;10465519;28;20127;-71
2023/05/15 14:50:08;;;;;;;16.58;6.15;;;;;;;;;;10463716;28;20526;-72
2023/05/15 14:55:08;;;;;;;11.73;5.57;;;;;;;;;;10446860;28;20130;-70
2023/05/15 15:00:18;;;;;;;13.13;6.38;;;;;;;;;;10468080;28;20032;-71
2023/05/15 15:05:30;;;;;;;9.20;6.13;;;;;;;;;;10467096;28;20020;-72
2023/05/15 15:32:06;;;;;;;19.33;6.15;;;;;;;;;;2828464;23;20067;-72
2023/05/15 15:37:06;;;;;;;11.25;7.18;;;;;;;;;;10463790;28;20032;-72
2023/05/15 15:42:06;;;;;;;14.40;8.07;;;;;;;;;;10452687;28;20039;-71
2023/05/15 15:47:07;;;;;;;10.88;7.13;;;;;;;;;;10463262;28;20041;-72
2023/05/15 15:52:08;;;;;;;15.70;8.77;;;;;;;;;;10462696;28;20032;-70
2023/05/15 15:57:08;;;;;;;14.30;9.02;;;;;;;;;;10465107;28;20486;-71
2023/05/15 16:02:21;;;;;;;;;;;;;;;;;;;;;
2023/05/15 16:12:59;;;;;;;17.65;9.73;;;;;;;;;;10440926;28;20028;-70
2023/05/15 16:18:00;;;;;;;26.55;11.02;;;;;;;;;;10444145;28;20029;-71
2023/05/15 16:23:01;;;;;;;32.33;12.98;;;;;;;;;;10488746;28;20040;-71
2023/05/15 16:28:01;;;;;;;21.45;11.73;;;;;;;;;;10461142;28;20043;-73
2023/05/15 16:33:18;;;;;;;25.25;14.25;;;;;;;;;;10452441;28;20049;-71
2023/05/15 16:38:27;;;;;;;34.80;17.90;;;;;;;;;;10426566;28;20033;-70
2023/05/15 16:43:34;;;;;;;21.98;12.57;;;;;;;;;;10440512;28;20044;-70
2023/05/15 16:48:35;;;;;;;21.52;13.77;;;;;;;;;;10452518;28;20102;-74
2023/05/15 16:53:39;;;;;;;31.70;14.95;;;;;;;;;;10436542;28;20044;-75
2023/05/15 16:58:46;;;;;;;29.35;14.75;;;;;;;;;;10451956;28;20029;-76
2023/05/15 17:03:46;;;;;;;32.53;14.75;;;;;;;;;;10420581;28;20044;-69
2023/05/15 17:08:49;;;;;;;22.27;14.27;;;;;;;;;;10444980;28;20035;-76
2023/05/15 17:13:50;;;;;;;26.48;15.00;;;;;;;;;;10469038;28;20055;-76
2023/05/15 17:24:54;;;;;;;;;;;;;;;;;;;;;
2023/05/15 17:30:00;;;;;;;31.63;13.38;;;;;;;;;;10456814;28;20028;-76
2023/05/15 17:35:02;;;;;;;23.35;12.75;;;;;;;;;;10463655;28;20537;-76
2023/05/15 17:40:05;;;;;;;25.08;12.02;;;;;;;;;;10461189;28;20564;-76
2023/05/15 17:45:17;;;;;;;;;;;;;;;;;;;;;
2023/05/15 17:50:36;;;;;;;22.02;11.65;;;;;;;;;;10452287;28;20112;-75
2023/05/15 17:55:37;;;;;;;27.42;11.45;;;;;;;;;;10429120;28;20114;-75
2023/05/15 18:00:37;;;;;;;24.47;10.73;;;;;;;;;;10436784;28;20478;-76
2023/05/15 18:05:41;;;;;;;20.30;11.47;;;;;;;;;;10460691;28;20068;-78
2023/05/15 18:10:43;;;;;;;22.63;12.05;;;;;;;;;;10433577;28;20286;-79
2023/05/15 18:15:43;;;;;;;16.13;11.52;;;;;;;;;;10448886;28;20557;-79
2023/05/15 18:20:44;;;;;;;19.77;12.47;;;;;;;;;;10426932;28;20055;-77
2023/05/15 18:25:47;;;;;;;25.03;13.83;;;;;;;;;;10441153;28;20063;-77
2023/05/15 18:30:52;;;;;;;31.95;15.38;;;;;;;;;;10427749;28;20415;-76
2023/05/15 18:35:52;;;;;;;31.33;16.60;;;;;;;;;;10448165;28;20036;-75
2023/05/15 18:41:09;;;;;;;32.72;18.55;;;;;;;;;;10450950;28;20027;-74
2023/05/15 18:46:11;;;;;;;25.42;16.73;;;;;;;;;;10442458;28;20119;-73
2023/05/15 18:51:11;;;;;;;33.20;18.30;;;;;;;;;;10421094;28;20406;-74
2023/05/15 18:56:13;;;;;;;26.10;16.42;;;;;;;;;;10453183;28;20041;-73
2023/05/15 19:01:14;;;;;;;26.20;16.23;;;;;;;;;;10435536;28;20537;-74
2023/05/15 19:06:22;;;;;;;33.78;18.42;;;;;;;;;;10443367;28;20036;-74
2023/05/15 19:11:24;;;;;;;26.15;16.05;;;;;;;;;;10446267;28;20063;-77
2023/05/15 19:16:27;;;;;;;26.73;17.20;;;;;;;;;;10437969;28;20031;-75
2023/05/15 19:21:28;;;;;;;30.23;16.48;;;;;;;;;;10441152;28;20044;-75
2023/05/15 19:26:28;;;;;;;31.13;16.77;;;;;;;;;;10447632;28;20037;-71
2023/05/15 19:31:28;;;;;;;30.83;17.67;;;;;;;;;;10451739;28;20048;-76
2023/05/15 19:36:30;;;;;;;25.43;16.20;;;;;;;;;;10451732;28;20040;-85
2023/05/15 19:41:30;;;;;;;27.10;17.08;;;;;;;;;;10451843;28;20270;-74
2023/05/15 19:46:30;;;;;;;28.90;15.93;;;;;;;;;;10452448;28;20109;-80
2023/05/15 19:51:32;;;;;;;29.67;17.45;;;;;;;;;;10453024;28;20298;-74
2023/05/15 19:56:33;;;;;;;24.40;14.75;;;;;;;;;;10448261;28;20032;-68
2023/05/15 20:01:33;;;;;;;27.00;15.50;;;;;;;;;;10445860;28;20441;-69
2023/05/15 20:06:33;;;;;;;26.40;16.47;;;;;;;;;;10449553;28;20060;-69
2023/05/15 20:11:34;;;;;;;25.90;15.80;;;;;;;;;;10452459;28;20040;-69
2023/05/15 20:16:34;;;;;;;27.67;16.00;;;;;;;;;;10431431;28;20672;-69
2023/05/15 20:21:35;;;;;;;23.50;14.82;;;;;;;;;;10453455;28;20349;-70
2023/05/15 20:26:37;;;;;;;25.85;15.02;;;;;;;;;;10448168;28;20045;-72
2023/05/15 20:31:39;;;;;;;29.30;14.85;;;;;;;;;;10436807;28;20055;-70
2023/05/15 20:36:39;;;;;;;23.95;15.75;;;;;;;;;;10447454;28;20037;-73
2023/05/15 20:41:39;;;;;;;32.17;16.58;;;;;;;;;;10458052;28;20497;-75
2023/05/15 20:46:42;;;;;;;24.55;14.82;;;;;;;;;;10458095;28;20032;-70
2023/05/15 20:51:43;;;;;;;25.00;15.38;;;;;;;;;;10455440;28;20532;-71
2023/05/15 20:56:43;;;;;;;29.67;16.55;;;;;;;;;;10463606;28;20035;-71
2023/05/15 21:01:44;;;;;;;28.23;16.35;;;;;;;;;;10453159;28;20071;-71
2023/05/15 21:06:44;;;;;;;34.20;17.80;;;;;;;;;;10461195;28;20048;-75
2023/05/15 21:11:46;;;;;;;35.30;19.17;;;;;;;;;;10444954;28;20041;-79
2023/05/15 21:16:48;;;;;;;36.60;18.60;;;;;;;;;;10458508;28;20032;-78
2023/05/15 21:21:48;;;;;;;29.35;18.08;;;;;;;;;;10441550;28;20076;-71
2023/05/15 21:26:49;;;;;;;27.97;16.57;;;;;;;;;;10455755;28;20421;-72
2023/05/15 21:31:49;;;;;;;28.30;17.00;;;;;;;;;;10455718;28;20044;-72
2023/05/15 21:36:51;;;;;;;29.03;16.23;;;;;;;;;;10462066;28;20028;-71
2023/05/15 21:41:51;;;;;;;29.63;15.43;;;;;;;;;;10460128;28;20048;-71
2023/05/15 21:46:52;;;;;;;27.20;16.03;;;;;;;;;;10460433;28;20433;-70
2023/05/15 21:51:52;;;;;;;24.80;13.80;;;;;;;;;;10459835;28;20052;-71
2023/05/15 21:56:52;;;;;;;25.40;14.10;;;;;;;;;;10459719;28;20094;-70
2023/05/15 22:01:53;;;;;;;30.92;17.10;;;;;;;;;;10456978;28;20522;-70
2023/05/15 22:06:53;;;;;;;25.97;14.90;;;;;;;;;;10459728;28;20036;-70
2023/05/15 22:11:54;;;;;;;27.95;14.48;;;;;;;;;;10459150;28;20788;-72
2023/05/15 22:16:58;;;;;;;27.97;14.43;;;;;;;;;;10435403;28;20449;-70
2023/05/15 22:22:00;;;;;;;25.48;13.25;;;;;;;;;;10467899;28;20753;-70
2023/05/15 22:27:03;;;;;;;21.92;13.65;;;;;;;;;;10455416;28;20040;-79
2023/05/15 22:37:41;;;;;;;20.10;12.43;;;;;;;;;;10444577;28;20295;-70
2023/05/15 22:42:41;;;;;;;20.75;12.70;;;;;;;;;;10463406;28;20686;-70
2023/05/15 22:47:43;;;;;;;21.00;13.13;;;;;;;;;;10465353;28;20131;-69
2023/05/15 22:52:44;;;;;;;27.10;15.18;;;;;;;;;;10464711;28;20357;-69
2023/05/15 22:57:44;;;;;;;24.05;13.38;;;;;;;;;;10447179;28;20104;-69
2023/05/15 23:02:45;;;;;;;21.02;13.27;;;;;;;;;;10442309;28;20041;-69
2023/05/15 23:07:45;;;;;;;22.97;13.10;;;;;;;;;;10458044;28;20067;-70
2023/05/15 23:12:45;;;;;;;26.27;13.90;;;;;;;;;;10462257;28;20637;-68
2023/05/15 23:17:46;;;;;;;21.00;13.68;;;;;;;;;;10462325;28;20660;-69
2023/05/15 23:22:46;;;;;;;25.88;15.02;;;;;;;;;;10443860;28;20791;-69
2023/05/15 23:27:46;;;;;;;35.47;15.70;;;;;;;;;;10462944;28;20118;-69
2023/05/15 23:32:47;;;;;;;23.27;14.52;;;;;;;;;;10452240;28;20387;-69
2023/05/15 23:37:47;;;;;;;27.20;16.27;;;;;;;;;;10446104;28;20063;-69
2023/05/15 23:42:47;;;;;;;25.25;15.45;;;;;;;;;;10463838;28;20266;-69
2023/05/15 23:47:54;;;;;;;22.40;15.57;;;;;;;;;;10463311;28;20033;-69
2023/05/15 23:52:54;;;;;;;26.75;15.90;;;;;;;;;;10463142;28;20352;-69
2023/05/15 23:57:55;;;;;;;26.03;16.20;;;;;;;;;;10463235;28;20079;-69
